Time;durP1;ratioP1;P1;durP2;ratioP2;P2;SDS_P1;SDS_P2;PMS_P1;PMS_P2;Temp;Humidity;BMP_temperature;BMP_pressure;BME280_temperature;BME280_humidity;BME280_pressure;Samples;Min_cycle;Max_cycle;Signal;HPM_P1;HPM_P2
2023/04/13 00:02:11;;;;;;;6.30;1.33;;;7.60;99.90;;;;;;4903113;29;20036;-75
2023/04/13 00:04:37;;;;;;;6.30;1.13;;;7.50;99.90;;;;;;4903328;29;20028;-75
2023/04/13 00:07:03;;;;;;;7.00;1.00;;;7.50;99.90;;;;;;4903977;29;20131;-75
2023/04/13 00:09:31;;;;;;;6.72;1.10;;;7.50;99.90;;;;;;4903070;29;20127;-75
2023/04/13 00:11:57;;;;;;;4.32;1.17;;;7.40;99.90;;;;;;4901251;29;20039;-75
2023/04/13 00:14:32;;;;;;;4.43;1.40;;;7.40;99.90;;;;;;4903154;29;20688;-75
2023/04/13 00:16:58;;;;;;;4.65;1.13;;;7.30;99.90;;;;;;4901208;29;20412;-75
2023/04/13 00:19:24;;;;;;;8.80;1.60;;;7.20;99.90;;;;;;4901672;29;20036;-75
2023/04/13 00:21:52;;;;;;;9.70;1.63;;;7.20;99.90;;;;;;4903925;29;20116;-73
2023/04/13 00:24:18;;;;;;;3.63;1.48;;;7.10;99.90;;;;;;4903861;29;20032;-75
2023/04/13 00:26:44;;;;;;;7.03;1.42;;;7.10;99.90;;;;;;4902839;29;20126;-75
2023/04/13 00:29:10;;;;;;;10.50;1.85;;;7.00;99.90;;;;;;4904008;29;20128;-75
2023/04/13 00:31:36;;;;;;;7.95;1.50;;;7.00;99.90;;;;;;4903295;29;20456;-74
2023/04/13 00:34:02;;;;;;;9.10;1.50;;;7.10;99.90;;;;;;4900811;29;20032;-75
2023/04/13 00:36:28;;;;;;;4.97;1.08;;;7.10;99.90;;;;;;4893720;29;20395;-75
2023/04/13 00:38:56;;;;;;;5.60;1.33;;;7.10;99.90;;;;;;4900359;29;20130;-75
2023/04/13 00:41:23;;;;;;;12.98;1.50;;;7.10;99.90;;;;;;4908992;29;20094;-76
2023/04/13 00:43:49;;;;;;;5.93;1.10;;;7.00;99.90;;;;;;4910233;29;20372;-74
2023/04/13 00:46:18;;;;;;;7.35;1.60;;;7.00;99.90;;;;;;4909027;29;20048;-75
2023/04/13 00:48:46;;;;;;;8.50;2.17;;;6.90;99.90;;;;;;4908301;29;20036;-75
2023/04/13 00:51:13;;;;;;;8.18;1.63;;;6.90;99.90;;;;;;4907541;29;20119;-75
2023/04/13 00:53:39;;;;;;;7.70;1.67;;;6.90;99.90;;;;;;4908481;29;20063;-74
2023/04/13 00:56:05;;;;;;;6.38;1.38;;;6.90;99.90;;;;;;4891577;29;20134;-75
2023/04/13 00:58:32;;;;;;;9.98;2.00;;;6.90;99.90;;;;;;4907855;29;20028;-76
2023/04/13 01:00:57;;;;;;;9.60;1.70;;;6.80;99.90;;;;;;4909468;29;20067;-75
2023/04/13 01:03:24;;;;;;;8.32;1.58;;;6.80;99.90;;;;;;4903285;29;20425;-75
2023/04/13 01:06:08;;;;;;;4.53;1.35;;;6.90;99.90;;;;;;4908871;29;20028;-75
2023/04/13 01:08:51;;;;;;;8.57;1.98;;;6.90;99.90;;;;;;4907577;29;20039;-75
2023/04/13 01:11:26;;;;;;;9.93;1.65;;;6.90;99.90;;;;;;4909416;29;20043;-75
2023/04/13 01:14:12;;;;;;;14.82;1.88;;;6.90;99.90;;;;;;4909882;29;20032;-75
2023/04/13 01:16:49;;;;;;;5.72;1.60;;;6.90;99.90;;;;;;4908007;29;20218;-74
2023/04/13 01:19:55;;;;;;;6.85;1.60;;;6.80;99.90;;;;;;4909023;29;20138;-74
2023/04/13 01:22:24;;;;;;;10.45;2.33;;;6.80;99.90;;;;;;4917868;29;20156;-75
2023/04/13 01:25:05;;;;;;;10.20;1.40;;;6.70;99.90;;;;;;4907383;29;20032;-74
2023/04/13 01:27:46;;;;;;;6.13;1.27;;;6.70;99.90;;;;;;4908648;29;20052;-75
2023/04/13 01:30:20;;;;;;;11.90;2.08;;;6.70;99.90;;;;;;4909780;29;20028;-75
2023/04/13 01:32:48;;;;;;;10.80;1.45;;;6.70;99.90;;;;;;4891977;29;20501;-75
2023/04/13 01:35:14;;;;;;;11.73;1.75;;;6.70;99.90;;;;;;4904471;29;20832;-75
2023/04/13 01:37:42;;;;;;;8.52;1.65;;;6.60;99.90;;;;;;4906813;29;20035;-76
2023/04/13 01:40:12;;;;;;;11.32;1.65;;;6.60;99.90;;;;;;4908636;29;20034;-75
2023/04/13 01:42:42;;;;;;;9.20;1.80;;;6.60;99.90;;;;;;4907402;29;20092;-74
2023/04/13 01:45:19;;;;;;;8.43;1.63;;;6.50;99.90;;;;;;4906085;29;20047;-75
2023/04/13 01:48:10;;;;;;;8.25;1.73;;;6.50;99.90;;;;;;4899183;29;20036;-75
2023/04/13 01:50:49;;;;;;;7.78;2.17;;;6.60;99.90;;;;;;4887250;29;20036;-75
2023/04/13 01:53:18;;;;;;;12.10;1.75;;;6.60;99.90;;;;;;4885237;29;20040;-74
2023/04/13 01:55:44;;;;;;;6.03;1.52;;;6.60;99.90;;;;;;4900866;29;20024;-75
2023/04/13 01:58:13;;;;;;;9.02;1.70;;;6.60;99.90;;;;;;4901445;29;20035;-75
2023/04/13 02:00:40;;;;;;;8.85;1.50;;;6.60;99.90;;;;;;4896244;29;20079;-74
2023/04/13 02:03:07;;;;;;;8.57;1.83;;;6.50;99.90;;;;;;4900925;29;20055;-74
2023/04/13 02:05:35;;;;;;;10.88;2.13;;;6.50;99.90;;;;;;4906749;29;20476;-74
2023/04/13 02:08:05;;;;;;;8.98;1.33;;;6.50;99.90;;;;;;4904402;29;20566;-72
2023/04/13 02:10:33;;;;;;;6.05;1.70;;;6.50;99.90;;;;;;4905840;29;20099;-72
2023/04/13 02:13:03;;;;;;;11.98;1.95;;;6.40;99.90;;;;;;4897444;29;20052;-75
2023/04/13 02:15:29;;;;;;;8.10;1.50;;;6.50;99.90;;;;;;4905556;29;20856;-75
2023/04/13 02:17:55;;;;;;;10.98;1.48;;;6.40;99.90;;;;;;4902384;29;20032;-75
2023/04/13 02:20:20;;;;;;;7.43;1.83;;;6.40;99.90;;;;;;4905250;29;20051;-76
2023/04/13 02:22:46;;;;;;;7.57;1.48;;;6.40;99.90;;;;;;4901998;29;20024;-75
2023/04/13 02:25:14;;;;;;;12.57;1.70;;;6.40;99.90;;;;;;4895669;29;20037;-76
2023/04/13 02:27:40;;;;;;;7.15;1.67;;;6.40;99.90;;;;;;4897708;29;20032;-76
2023/04/13 02:30:08;;;;;;;15.38;1.70;;;6.40;99.90;;;;;;4901870;29;20032;-75
2023/04/13 02:32:40;;;;;;;9.98;1.60;;;6.40;99.90;;;;;;4904352;29;20024;-75
2023/04/13 02:35:08;;;;;;;;;;;6.40;99.90;;;;;;4903753;29;20039;-76
2023/04/13 02:37:38;;;;;;;11.02;1.50;;;6.40;99.90;;;;;;4894880;29;19982;-76
2023/04/13 02:40:07;;;;;;;11.02;1.95;;;6.40;99.90;;;;;;4886819;29;20230;-76
2023/04/13 02:42:32;;;;;;;15.43;1.85;;;6.30;99.90;;;;;;4886659;29;20566;-73
2023/04/13 02:44:58;;;;;;;8.00;1.90;;;6.30;99.90;;;;;;4893466;29;20032;-73
2023/04/13 02:47:23;;;;;;;9.90;1.60;;;6.20;99.90;;;;;;4899794;29;20124;-74
2023/04/13 02:49:49;;;;;;;13.65;1.52;;;6.20;99.90;;;;;;4895934;29;20445;-74
2023/04/13 02:52:15;;;;;;;8.00;1.55;;;6.20;99.90;;;;;;4903763;29;20066;-74
2023/04/13 02:54:42;;;;;;;5.20;1.40;;;6.10;99.90;;;;;;4905396;29;20091;-73
2023/04/13 02:57:09;;;;;;;9.02;1.40;;;6.20;99.90;;;;;;4903694;29;20437;-75
2023/04/13 02:59:35;;;;;;;10.75;1.30;;;6.10;99.90;;;;;;4904825;29;20047;-74
2023/04/13 03:02:00;;;;;;;6.22;1.13;;;6.10;99.90;;;;;;4902606;29;20032;-74
2023/04/13 03:04:28;;;;;;;6.97;1.40;;;6.10;99.90;;;;;;4904401;29;20453;-74
2023/04/13 03:06:54;;;;;;;10.75;1.80;;;6.00;99.90;;;;;;4904604;29;20494;-73
2023/04/13 03:09:20;;;;;;;9.38;1.52;;;5.90;99.90;;;;;;4905780;29;20039;-74
2023/04/13 03:11:45;;;;;;;10.00;1.45;;;5.90;99.90;;;;;;4903506;29;20581;-74
2023/04/13 03:14:11;;;;;;;10.43;1.33;;;5.80;99.90;;;;;;4894554;29;20039;-75
2023/04/13 03:16:38;;;;;;;10.25;2.20;;;5.80;99.90;;;;;;4901648;29;20071;-73
2023/04/13 03:19:04;;;;;;;10.40;1.75;;;5.70;99.90;;;;;;4905170;29;20087;-74
2023/04/13 03:21:33;;;;;;;12.30;1.60;;;5.70;99.90;;;;;;4886264;29;20041;-75
2023/04/13 03:23:58;;;;;;;11.48;1.73;;;5.70;99.90;;;;;;4884028;29;20057;-74
2023/04/13 03:26:24;;;;;;;9.90;1.60;;;5.70;99.90;;;;;;4893538;29;20044;-74
2023/04/13 03:28:50;;;;;;;9.98;1.55;;;5.70;99.90;;;;;;4906085;29;20032;-72
2023/04/13 03:31:16;;;;;;;6.15;1.20;;;5.70;99.90;;;;;;4905518;29;20036;-74
2023/04/13 03:33:41;;;;;;;12.85;1.70;;;5.70;99.90;;;;;;4904598;29;20024;-74
2023/04/13 03:36:08;;;;;;;8.98;1.60;;;5.70;99.90;;;;;;4902374;29;20047;-75
2023/04/13 03:38:34;;;;;;;7.68;1.30;;;5.60;99.90;;;;;;4893874;29;20059;-74
2023/04/13 03:41:00;;;;;;;16.17;1.67;;;5.50;99.90;;;;;;4885196;29;20036;-73
2023/04/13 03:43:26;;;;;;;14.35;1.75;;;5.40;99.90;;;;;;4888567;29;20077;-74
2023/04/13 03:45:51;;;;;;;8.65;1.60;;;5.40;99.90;;;;;;4902418;29;20538;-73
2023/04/13 03:48:18;;;;;;;9.80;1.48;;;5.40;99.90;;;;;;4903729;29;20028;-74
2023/04/13 03:50:44;;;;;;;9.63;1.65;;;5.40;99.90;;;;;;4895799;29;20476;-74
2023/04/13 03:53:10;;;;;;;11.63;1.70;;;5.30;99.90;;;;;;4896233;29;20031;-73
2023/04/13 03:55:36;;;;;;;13.23;1.88;;;5.30;99.90;;;;;;4903078;29;20036;-73
2023/04/13 03:58:01;;;;;;;11.63;2.30;;;5.30;99.90;;;;;;4901642;29;20039;-73
2023/04/13 04:00:27;;;;;;;8.43;1.60;;;5.20;99.90;;;;;;4902711;29;20479;-73
2023/04/13 04:02:53;;;;;;;9.13;1.60;;;5.20;99.90;;;;;;4891860;29;20107;-75
2023/04/13 04:05:18;;;;;;;13.57;2.10;;;5.20;99.90;;;;;;4888632;29;20451;-73
2023/04/13 04:07:44;;;;;;;16.77;2.08;;;5.30;99.90;;;;;;4903510;29;20052;-74
2023/04/13 04:10:09;;;;;;;15.60;2.50;;;5.30;99.90;;;;;;4904975;29;20036;-74
2023/04/13 04:12:35;;;;;;;13.95;2.05;;;5.20;99.90;;;;;;4903083;29;20079;-74
2023/04/13 04:15:01;;;;;;;7.53;1.23;;;5.20;99.90;;;;;;4894140;29;20039;-74
2023/04/13 04:17:26;;;;;;;10.20;1.70;;;5.20;99.90;;;;;;4899314;29;20259;-73
2023/04/13 04:19:52;;;;;;;8.80;1.58;;;5.20;99.90;;;;;;4901940;29;20217;-74
2023/04/13 04:22:18;;;;;;;13.48;1.80;;;5.20;99.90;;;;;;4903250;29;20032;-73
2023/04/13 04:24:44;;;;;;;8.05;1.30;;;5.20;99.90;;;;;;4904749;29;20035;-75
2023/04/13 04:27:13;;;;;;;9.82;1.80;;;5.20;99.90;;;;;;4900517;29;20103;-73
2023/04/13 04:29:38;;;;;;;8.23;1.98;;;5.20;99.90;;;;;;4903588;29;20028;-74
2023/04/13 04:32:09;;;;;;;12.45;2.05;;;5.20;99.90;;;;;;4901696;29;20115;-74
2023/04/13 04:34:35;;;;;;;8.02;1.52;;;5.10;99.90;;;;;;4901245;29;20172;-73
2023/04/13 04:37:04;;;;;;;20.25;2.22;;;5.10;99.90;;;;;;4900556;29;20507;-74
2023/04/13 04:39:34;;;;;;;7.72;1.25;;;5.10;99.90;;;;;;4901267;29;20762;-73
2023/04/13 04:42:03;;;;;;;13.30;1.50;;;5.10;99.90;;;;;;4900708;29;20036;-73
2023/04/13 04:44:29;;;;;;;9.57;1.55;;;5.00;99.90;;;;;;4902245;29;20032;-75
2023/04/13 04:46:57;;;;;;;8.20;1.30;;;5.00;99.90;;;;;;4899554;29;20380;-74
2023/04/13 04:49:24;;;;;;;10.02;1.70;;;4.90;99.90;;;;;;4900186;29;20488;-72
2023/04/13 04:51:51;;;;;;;7.68;1.52;;;4.90;99.90;;;;;;4915587;29;20077;-75
2023/04/13 04:54:18;;;;;;;14.20;2.53;;;4.90;99.90;;;;;;4902970;29;20080;-74
2023/04/13 04:56:46;;;;;;;13.02;1.60;;;5.00;99.90;;;;;;4900460;29;20118;-74
2023/04/13 04:59:11;;;;;;;11.57;1.83;;;5.00;99.90;;;;;;4903161;29;20051;-74
2023/04/13 05:01:37;;;;;;;11.20;1.55;;;5.00;99.90;;;;;;4900263;29;20380;-74
2023/04/13 05:04:03;;;;;;;21.30;2.08;;;4.90;99.90;;;;;;4893990;29;20032;-74
2023/04/13 05:06:32;;;;;;;10.82;2.10;;;5.00;99.90;;;;;;4900002;29;20063;-74
2023/04/13 05:09:05;;;;;;;7.30;1.63;;;4.90;99.90;;;;;;4900384;29;20024;-74
2023/04/13 05:11:31;;;;;;;13.00;2.22;;;5.00;99.90;;;;;;4899936;29;20051;-74
2023/04/13 05:13:56;;;;;;;11.52;2.08;;;4.90;99.90;;;;;;4900418;29;20446;-74
2023/04/13 05:16:23;;;;;;;12.30;1.85;;;4.90;99.90;;;;;;4899928;29;20036;-73
2023/04/13 05:18:49;;;;;;;11.60;1.83;;;4.90;99.90;;;;;;4899938;29;20027;-73
2023/04/13 05:21:15;;;;;;;6.35;1.45;;;5.00;99.90;;;;;;4900309;29;20067;-73
2023/04/13 05:23:42;;;;;;;14.43;2.55;;;5.00;99.90;;;;;;4899905;29;20024;-73
2023/04/13 05:26:11;;;;;;;9.43;2.08;;;5.00;99.90;;;;;;4903421;29;20040;-72
2023/04/13 05:28:38;;;;;;;9.57;1.55;;;5.00;99.90;;;;;;4905009;29;20036;-73
2023/04/13 05:31:08;;;;;;;14.38;2.20;;;5.00;99.90;;;;;;4904022;29;20736;-73
2023/04/13 05:33:34;;;;;;;8.20;1.55;;;5.10;99.90;;;;;;4903951;29;20035;-74
2023/04/13 05:36:01;;;;;;;17.95;2.28;;;5.10;99.90;;;;;;4902534;29;20058;-74
2023/04/13 05:38:26;;;;;;;7.95;1.58;;;5.10;99.90;;;;;;4903864;29;20124;-74
2023/04/13 05:40:53;;;;;;;14.95;2.10;;;5.20;99.90;;;;;;4903010;29;20107;-73
2023/04/13 05:43:19;;;;;;;9.25;1.98;;;5.30;99.90;;;;;;4902542;29;20499;-73
2023/04/13 05:45:44;;;;;;;6.70;1.40;;;5.40;99.90;;;;;;4903080;29;20047;-74
2023/04/13 05:48:10;;;;;;;13.90;2.13;;;5.40;99.90;;;;;;4898303;29;20119;-74
2023/04/13 05:50:36;;;;;;;7.22;1.20;;;5.50;99.90;;;;;;4903452;29;20032;-75
2023/04/13 05:53:01;;;;;;;7.30;1.83;;;5.50;99.90;;;;;;4902818;29;20049;-73
2023/04/13 05:55:28;;;;;;;11.07;1.70;;;5.70;99.90;;;;;;4904941;29;20060;-73
2023/04/13 05:57:54;;;;;;;13.57;1.40;;;5.80;99.90;;;;;;4901491;29;20082;-74
2023/04/13 06:00:20;;;;;;;13.48;1.73;;;6.00;99.90;;;;;;4903195;29;20036;-73
2023/04/13 06:02:47;;;;;;;13.55;2.28;;;6.10;99.90;;;;;;4901374;29;20147;-73
2023/04/13 06:05:14;;;;;;;7.65;1.33;;;6.20;99.90;;;;;;4901571;29;20344;-73
2023/04/13 06:07:43;;;;;;;19.08;4.43;;;6.30;99.90;;;;;;4902846;29;20058;-74
2023/04/13 06:10:10;;;;;;;8.98;1.42;;;6.40;99.90;;;;;;4900785;29;20039;-74
2023/04/13 06:12:36;;;;;;;15.32;2.83;;;6.70;99.90;;;;;;4901943;29;20395;-74
2023/04/13 06:15:03;;;;;;;16.00;1.98;;;7.10;99.90;;;;;;4899172;29;20036;-74
2023/04/13 06:17:28;;;;;;;10.18;2.28;;;7.40;99.90;;;;;;4900996;29;20034;-74
2023/04/13 06:19:54;;;;;;;15.70;2.30;;;7.70;99.90;;;;;;4901880;29;20408;-74
2023/04/13 06:22:20;;;;;;;11.27;1.63;;;8.00;99.90;;;;;;4902817;29;20030;-74
2023/04/13 06:24:45;;;;;;;17.63;8.57;;;8.20;99.90;;;;;;4899381;29;20075;-74
2023/04/13 06:27:11;;;;;;;13.57;2.47;;;8.40;99.90;;;;;;4898474;29;20067;-73
2023/04/13 06:29:37;;;;;;;13.75;2.30;;;8.70;99.90;;;;;;4899208;29;20028;-74
2023/04/13 06:32:03;;;;;;;10.82;2.05;;;8.80;99.90;;;;;;4903028;29;20039;-73
2023/04/13 06:34:30;;;;;;;12.55;2.47;;;8.90;99.90;;;;;;4898737;29;20035;-74
2023/04/13 06:36:56;;;;;;;10.05;1.65;;;9.00;99.90;;;;;;4901126;29;20582;-73
2023/04/13 06:39:22;;;;;;;10.07;1.83;;;9.40;99.90;;;;;;4897579;29;20043;-74
2023/04/13 06:41:47;;;;;;;15.68;2.38;;;9.90;99.80;;;;;;4901553;29;20414;-74
2023/04/13 06:44:13;;;;;;;7.20;1.27;;;10.10;96.50;;;;;;4904744;29;20499;-74
2023/04/13 06:46:39;;;;;;;8.18;1.67;;;10.80;96.20;;;;;;4904892;29;20055;-73
2023/04/13 06:49:05;;;;;;;10.32;2.28;;;11.50;93.60;;;;;;4904101;29;20115;-73
2023/04/13 06:51:30;;;;;;;10.80;2.03;;;12.20;88.20;;;;;;4904809;29;20064;-74
2023/04/13 06:53:56;;;;;;;10.98;2.28;;;12.90;79.90;;;;;;4905228;29;20024;-74
2023/04/13 06:56:22;;;;;;;14.65;1.60;;;13.50;69.50;;;;;;4903823;29;20133;-74
2023/04/13 06:58:47;;;;;;;7.60;1.80;;;14.00;69.00;;;;;;4903286;29;20098;-73
2023/04/13 07:01:13;;;;;;;12.98;1.67;;;15.20;59.30;;;;;;4903687;29;20057;-75
2023/04/13 07:03:39;;;;;;;10.05;1.70;;;16.00;55.60;;;;;;4900921;29;20028;-74
2023/04/13 07:06:06;;;;;;;8.93;1.92;;;16.70;52.10;;;;;;4901312;29;20059;-74
2023/04/13 07:08:33;;;;;;;14.43;2.33;;;17.60;49.20;;;;;;4901304;29;20032;-74
2023/04/13 07:10:58;;;;;;;10.30;1.60;;;18.10;46.80;;;;;;4901569;29;20036;-74
2023/04/13 07:13:25;;;;;;;10.23;1.73;;;17.30;47.90;;;;;;4899537;29;20479;-74
2023/04/13 07:15:51;;;;;;;12.45;2.30;;;17.10;48.10;;;;;;4905321;29;20127;-74
2023/04/13 07:18:17;;;;;;;6.15;1.83;;;17.00;47.10;;;;;;4904090;29;20103;-74
2023/04/13 07:20:42;;;;;;;8.85;1.75;;;16.30;49.10;;;;;;4904801;29;20035;-74
2023/04/13 07:23:08;;;;;;;13.05;2.30;;;16.20;50.00;;;;;;4902284;29;20777;-74
2023/04/13 07:25:34;;;;;;;13.13;1.98;;;15.20;51.20;;;;;;4904827;29;20721;-74
2023/04/13 07:28:00;;;;;;;6.22;1.55;;;14.70;53.70;;;;;;4904799;29;20043;-75
2023/04/13 07:30:29;;;;;;;8.85;1.80;;;14.80;53.20;;;;;;4904529;29;20436;-74
2023/04/13 07:32:54;;;;;;;19.67;8.68;;;14.90;52.70;;;;;;4903094;29;20035;-74
2023/04/13 07:35:20;;;;;;;15.98;3.55;;;14.30;55.10;;;;;;4222811;29;10000425;-73
2023/04/13 07:37:48;;;;;;;10.57;2.25;;;14.30;56.50;;;;;;4896851;29;20028;-74
2023/04/13 07:40:15;;;;;;;11.02;2.28;;;14.10;56.80;;;;;;4901764;29;20024;-74
2023/04/13 07:42:41;;;;;;;14.82;1.85;;;13.90;61.80;;;;;;4901900;29;20028;-74
2023/04/13 07:45:09;;;;;;;9.68;2.10;;;14.10;59.60;;;;;;4902597;29;20032;-74
2023/04/13 07:47:35;;;;;;;12.02;2.28;;;14.50;59.60;;;;;;4900391;29;20093;-74
2023/04/13 07:50:00;;;;;;;7.85;1.70;;;16.30;53.40;;;;;;4896626;29;20080;-74
2023/04/13 07:52:27;;;;;;;8.13;1.63;;;19.30;47.10;;;;;;4901118;29;20086;-73
2023/04/13 07:54:53;;;;;;;10.38;1.77;;;22.50;40.90;;;;;;4897679;29;20021;-74
2023/04/13 07:57:20;;;;;;;10.57;1.90;;;24.80;35.70;;;;;;4888816;29;20055;-74
2023/04/13 07:59:46;;;;;;;7.50;1.45;;;26.50;32.40;;;;;;4902219;29;20046;-74
2023/04/13 08:02:12;;;;;;;8.32;1.58;;;27.70;31.00;;;;;;4902082;29;20047;-73
2023/04/13 08:04:38;;;;;;;7.63;1.48;;;29.00;29.70;;;;;;4905036;29;20038;-75
2023/04/13 08:07:04;;;;;;;11.57;2.17;;;30.10;27.80;;;;;;4902985;29;20060;-74
2023/04/13 08:09:39;;;;;;;9.27;1.90;;;30.70;27.10;;;;;;4900768;29;20040;-74
2023/04/13 08:12:05;;;;;;;11.10;2.00;;;30.70;26.80;;;;;;4898400;29;20032;-75
2023/04/13 08:14:30;;;;;;;11.38;1.90;;;31.40;26.30;;;;;;4898771;29;20035;-73
2023/04/13 08:16:56;;;;;;;8.82;1.70;;;31.50;26.40;;;;;;4896845;29;20032;-74
2023/04/13 08:19:22;;;;;;;8.95;1.83;;;31.80;25.50;;;;;;4896226;29;20058;-74
2023/04/13 08:21:48;;;;;;;8.32;1.88;;;32.60;26.00;;;;;;4897108;29;20028;-74
2023/04/13 08:24:14;;;;;;;10.15;1.92;;;33.10;25.10;;;;;;4898320;29;20721;-74
2023/04/13 08:26:40;;;;;;;10.57;2.03;;;33.70;25.20;;;;;;4894819;29;20127;-73
2023/04/13 08:29:05;;;;;;;8.23;1.70;;;34.00;24.50;;;;;;4896789;29;20143;-73
2023/04/13 08:31:31;;;;;;;9.98;2.20;;;33.90;23.60;;;;;;4900420;29;20036;-73
2023/04/13 08:33:57;;;;;;;6.43;1.90;;;34.30;24.90;;;;;;4902134;29;20040;-73
2023/04/13 08:36:22;;;;;;;10.60;2.38;;;34.40;24.20;;;;;;4903658;29;20111;-74
2023/04/13 08:38:48;;;;;;;8.82;2.10;;;32.80;25.30;;;;;;4903862;29;20059;-74
2023/04/13 08:41:16;;;;;;;8.07;2.00;;;32.90;25.10;;;;;;4901464;29;20515;-74
2023/04/13 08:43:42;;;;;;;10.63;2.10;;;33.30;24.90;;;;;;4897912;29;20040;-74
2023/04/13 08:46:08;;;;;;;9.60;1.70;;;33.50;25.50;;;;;;4896229;29;20044;-73
2023/04/13 08:48:38;;;;;;;9.30;2.22;;;33.90;24.60;;;;;;4900108;29;20504;-73
2023/04/13 08:51:04;;;;;;;6.72;1.75;;;33.70;23.10;;;;;;4897136;29;20041;-74
2023/04/13 08:53:30;;;;;;;7.90;1.80;;;33.40;23.10;;;;;;4902747;29;20028;-74
2023/04/13 08:55:59;;;;;;;10.13;1.95;;;33.90;25.30;;;;;;4901247;29;20609;-74
2023/04/13 08:58:27;;;;;;;11.07;1.90;;;33.40;23.40;;;;;;4900991;29;20040;-74
2023/04/13 09:00:55;;;;;;;8.52;1.80;;;33.90;23.50;;;;;;4902937;29;20074;-74
2023/04/13 09:03:24;;;;;;;5.65;1.60;;;33.10;24.60;;;;;;4902339;29;20696;-74
2023/04/13 09:05:58;;;;;;;10.82;1.83;;;33.50;23.30;;;;;;4906887;29;20452;-74
2023/04/13 09:08:25;;;;;;;6.82;2.03;;;33.50;23.00;;;;;;4906951;29;20112;-74
2023/04/13 09:10:55;;;;;;;7.50;1.60;;;32.40;24.30;;;;;;4907536;29;20037;-74
2023/04/13 09:13:21;;;;;;;7.43;1.60;;;33.30;23.80;;;;;;4906041;29;20039;-74
2023/04/13 09:15:47;;;;;;;5.38;1.33;;;31.00;23.80;;;;;;4906160;29;20087;-74
2023/04/13 09:18:14;;;;;;;5.95;1.50;;;32.20;24.40;;;;;;4905918;29;20032;-75
2023/04/13 09:20:41;;;;;;;8.43;1.65;;;33.70;23.20;;;;;;4904536;29;20028;-74
2023/04/13 09:23:14;;;;;;;8.00;1.70;;;34.60;22.80;;;;;;4904688;29;20032;-74
2023/04/13 09:25:40;;;;;;;5.90;1.50;;;35.30;22.00;;;;;;4903989;29;20035;-73
2023/04/13 09:28:07;;;;;;;6.47;1.60;;;34.30;22.40;;;;;;4903415;29;20556;-73
2023/04/13 09:30:33;;;;;;;11.73;1.92;;;33.60;23.30;;;;;;4904318;29;20040;-73
2023/04/13 09:33:09;;;;;;;7.40;1.40;;;33.50;22.80;;;;;;4903205;29;20047;-73
2023/04/13 09:35:36;;;;;;;6.75;1.38;;;32.70;23.70;;;;;;4902188;29;20088;-73
2023/04/13 09:38:06;;;;;;;6.93;1.75;;;31.80;23.50;;;;;;4903267;29;20035;-73
2023/04/13 09:40:31;;;;;;;8.10;1.50;;;30.60;23.90;;;;;;4906248;29;20091;-72
2023/04/13 09:43:03;;;;;;;7.10;1.65;;;29.60;24.20;;;;;;4906376;29;20825;-72
2023/04/13 09:45:37;;;;;;;6.35;1.48;;;28.90;26.40;;;;;;4906400;29;20028;-73
2023/04/13 09:48:04;;;;;;;5.50;1.42;;;30.30;25.40;;;;;;4905868;29;20494;-73
2023/04/13 09:50:33;;;;;;;10.43;1.58;;;31.00;24.20;;;;;;4565676;29;9999687;-72
2023/04/13 09:53:03;;;;;;;8.63;1.50;;;31.00;25.30;;;;;;4902974;29;20095;-73
2023/04/13 09:55:33;;;;;;;5.65;1.80;;;32.00;24.30;;;;;;4904485;29;20425;-74
2023/04/13 09:58:12;;;;;;;6.40;1.88;;;31.30;24.10;;;;;;4904703;29;20558;-73
2023/04/13 10:00:40;;;;;;;7.43;1.60;;;33.60;23.80;;;;;;4903670;29;20179;-73
2023/04/13 10:03:11;;;;;;;7.75;1.55;;;34.30;23.50;;;;;;4903709;29;20032;-73
2023/04/13 10:05:37;;;;;;;8.60;1.70;;;34.80;22.20;;;;;;4905088;29;20464;-73
2023/04/13 10:08:04;;;;;;;7.75;1.73;;;35.80;22.30;;;;;;4904256;29;20067;-73
2023/04/13 10:10:30;;;;;;;7.05;1.77;;;35.80;22.80;;;;;;4905815;29;20028;-73
2023/04/13 10:13:01;;;;;;;5.03;1.17;;;37.30;23.60;;;;;;4905184;29;20614;-74
2023/04/13 10:15:41;;;;;;;8.93;1.40;;;37.20;21.10;;;;;;4904960;29;20032;-72
2023/04/13 10:18:28;;;;;;;5.90;1.48;;;37.70;21.20;;;;;;4905451;29;20063;-74
2023/04/13 10:20:56;;;;;;;7.05;1.25;;;37.30;22.10;;;;;;4905224;29;20032;-73
2023/04/13 10:23:23;;;;;;;7.88;1.10;;;36.20;20.80;;;;;;4903612;29;20036;-73
2023/04/13 10:25:50;;;;;;;7.40;1.40;;;36.00;21.10;;;;;;4902613;29;20538;-73
2023/04/13 10:28:16;;;;;;;6.40;1.50;;;32.80;21.60;;;;;;4902218;29;20052;-73
2023/04/13 10:30:52;;;;;;;5.82;1.08;;;31.10;23.10;;;;;;4901822;29;20028;-72
2023/04/13 10:33:19;;;;;;;4.50;1.20;;;29.70;25.80;;;;;;4902867;29;20860;-73
2023/04/13 10:35:58;;;;;;;8.65;1.60;;;28.50;25.80;;;;;;4900023;29;20047;-73
2023/04/13 10:38:26;;;;;;;7.63;1.40;;;26.40;27.20;;;;;;4905552;29;20120;-73
2023/04/13 10:40:52;;;;;;;8.23;1.70;;;24.40;29.10;;;;;;4904491;29;20028;-72
2023/04/13 10:43:30;;;;;;;9.18;1.73;;;22.30;32.00;;;;;;4902170;29;20031;-73
2023/04/13 10:46:12;;;;;;;9.27;1.60;;;21.70;35.10;;;;;;4901278;29;20064;-73
2023/04/13 10:48:40;;;;;;;10.25;1.30;;;20.70;33.40;;;;;;4900938;29;20067;-73
2023/04/13 10:51:06;;;;;;;6.82;1.40;;;19.90;36.00;;;;;;4900497;29;20028;-76
2023/04/13 10:53:33;;;;;;;6.70;1.23;;;18.60;37.80;;;;;;4901794;29;20035;-76
2023/04/13 10:56:00;;;;;;;7.85;1.50;;;17.60;40.20;;;;;;4899693;29;20039;-75
2023/04/13 10:58:31;;;;;;;7.60;1.95;;;17.00;41.20;;;;;;4900804;29;20054;-75
2023/04/13 11:00:57;;;;;;;;;;;16.50;44.00;;;;;;4901595;29;20111;-75
2023/04/13 11:03:26;;;;;;;3.95;0.82;;;15.90;45.00;;;;;;4890581;29;20393;-76
2023/04/13 11:05:57;;;;;;;5.75;1.40;;;15.20;45.20;;;;;;4902567;29;20639;-75
2023/04/13 11:08:23;;;;;;;3.25;1.08;;;14.90;47.00;;;;;;4902173;29;20056;-75
2023/04/13 11:10:55;;;;;;;5.55;1.10;;;15.30;46.30;;;;;;4901324;29;20033;-76
2023/04/13 11:13:25;;;;;;;9.82;1.27;;;15.60;46.20;;;;;;4904635;29;20854;-75
2023/04/13 11:16:00;;;;;;;8.05;1.00;;;15.60;51.20;;;;;;4902131;29;20051;-74
2023/04/13 11:18:26;;;;;;;8.98;1.35;;;15.80;50.80;;;;;;4899045;29;20353;-75
2023/04/13 11:20:53;;;;;;;6.97;1.25;;;15.80;51.70;;;;;;4886816;29;20584;-73
2023/04/13 11:23:18;;;;;;;8.43;1.25;;;15.70;49.50;;;;;;4884760;29;20116;-75
2023/04/13 11:25:59;;;;;;;9.93;1.50;;;15.80;48.10;;;;;;4911126;29;20168;-72
2023/04/13 11:28:42;;;;;;;7.15;1.20;;;16.10;50.00;;;;;;4884079;29;20028;-75
2023/04/13 11:31:08;;;;;;;6.82;1.23;;;16.50;50.40;;;;;;4884602;29;20040;-76
2023/04/13 11:33:34;;;;;;;5.90;1.67;;;17.50;52.70;;;;;;4899349;29;20028;-75
2023/04/13 11:36:01;;;;;;;6.72;1.40;;;18.10;49.70;;;;;;4897297;29;20028;-76
2023/04/13 11:38:27;;;;;;;8.30;1.50;;;18.60;45.40;;;;;;4900080;29;20483;-75
2023/04/13 11:41:03;;;;;;;6.82;1.23;;;17.80;45.10;;;;;;4901309;29;20074;-76
2023/04/13 11:43:28;;;;;;;5.75;1.10;;;17.90;44.00;;;;;;4895179;29;20112;-74
2023/04/13 11:45:54;;;;;;;11.93;1.67;;;18.70;48.50;;;;;;4890891;29;20440;-74
2023/04/13 11:48:21;;;;;;;8.00;1.13;;;18.50;42.70;;;;;;4900219;29;20034;-76
2023/04/13 11:50:48;;;;;;;7.10;1.50;;;18.30;44.30;;;;;;4896489;29;20032;-75
2023/04/13 11:53:14;;;;;;;9.65;1.25;;;18.50;48.30;;;;;;4556790;29;9999819;-76
2023/04/13 11:55:40;;;;;;;6.20;1.13;;;18.40;46.50;;;;;;4894437;29;20020;-75
2023/04/13 11:58:14;;;;;;;12.50;1.63;;;17.90;45.90;;;;;;4897301;29;20035;-75
2023/04/13 12:00:40;;;;;;;7.18;1.40;;;18.40;51.80;;;;;;4891438;29;20024;-75
2023/04/13 12:03:16;;;;;;;8.85;1.30;;;18.10;47.10;;;;;;4891676;29;20050;-76
2023/04/13 12:05:43;;;;;;;7.97;1.20;;;17.80;45.20;;;;;;4895220;29;20050;-76
2023/04/13 12:08:19;;;;;;;6.45;0.80;;;17.00;45.10;;;;;;4896335;29;20051;-75
2023/04/13 12:10:45;;;;;;;5.82;1.08;;;17.00;52.10;;;;;;4896330;29;20077;-74
2023/04/13 12:13:12;;;;;;;8.10;1.40;;;17.50;48.60;;;;;;4892203;29;20491;-76
2023/04/13 12:15:44;;;;;;;10.63;1.35;;;17.50;49.20;;;;;;4895747;29;20051;-77
2023/04/13 12:18:12;;;;;;;5.78;1.25;;;17.80;53.00;;;;;;4893714;29;20730;-74
2023/04/13 12:20:44;;;;;;;6.70;1.27;;;16.90;45.60;;;;;;4885260;29;20140;-74
2023/04/13 12:23:22;;;;;;;10.75;1.30;;;16.10;50.30;;;;;;4894846;29;20110;-75
2023/04/13 12:25:54;;;;;;;5.88;0.95;;;14.70;51.40;;;;;;4894103;29;20503;-74
2023/04/13 12:28:20;;;;;;;9.52;1.52;;;13.60;55.30;;;;;;4892153;29;20127;-75
2023/04/13 12:30:46;;;;;;;6.68;1.55;;;13.30;70.30;;;;;;4898206;29;20642;-75
2023/04/13 12:33:12;;;;;;;9.80;1.60;;;13.00;67.70;;;;;;4893553;29;20063;-75
2023/04/13 12:35:38;;;;;;;8.05;1.13;;;12.80;73.90;;;;;;4901771;29;20127;-75
2023/04/13 12:38:05;;;;;;;10.63;1.35;;;12.70;77.60;;;;;;4900237;29;20076;-75
2023/04/13 12:40:31;;;;;;;10.68;1.40;;;12.40;77.10;;;;;;4902026;29;20039;-75
2023/04/13 12:42:56;;;;;;;11.98;1.50;;;12.20;82.50;;;;;;4901031;29;20036;-75
2023/04/13 12:45:22;;;;;;;6.93;1.70;;;12.00;91.80;;;;;;4902722;29;20059;-75
2023/04/13 12:47:48;;;;;;;8.90;1.20;;;11.50;92.80;;;;;;4899296;29;20035;-75
2023/04/13 12:50:14;;;;;;;6.82;1.50;;;11.00;95.90;;;;;;4898976;29;20029;-76
2023/04/13 12:52:41;;;;;;;6.03;1.15;;;10.70;99.90;;;;;;4903631;29;20519;-75